Time;durP1;ratioP1;P1;durP2;ratioP2;P2;SDS_P1;SDS_P2;PMS_P1;PMS_P2;Temp;Humidity;BMP_temperature;BMP_pressure;BME280_temperature;BME280_humidity;BME280_pressure;Samples;Min_cycle;Max_cycle;Signal;HPM_P1;HPM_P2
2024/03/08 00:00:12;;;;;;;17.27;7.00;;;5.20;99.90;;;;;;4994338;28;20034;-68
2024/03/08 00:02:39;;;;;;;13.45;6.97;;;5.20;99.90;;;;;;4987463;28;20105;-68
2024/03/08 00:05:08;;;;;;;15.40;6.68;;;5.20;99.90;;;;;;5005831;28;20022;-67
2024/03/08 00:07:40;;;;;;;13.73;6.15;;;5.20;99.90;;;;;;4978585;28;20026;-68
2024/03/08 00:10:11;;;;;;;22.30;7.38;;;5.20;99.90;;;;;;5010636;28;20061;-68
2024/03/08 00:12:41;;;;;;;9.68;6.03;;;5.20;99.90;;;;;;5006999;28;20061;-68
2024/03/08 00:15:13;;;;;;;13.32;6.05;;;5.10;99.90;;;;;;4991486;28;20521;-68
2024/03/08 00:17:40;;;;;;;12.40;4.90;;;5.10;99.90;;;;;;4974805;28;20037;-68
2024/03/08 00:20:11;;;;;;;13.30;7.10;;;5.10;99.90;;;;;;4991309;28;20029;-68
2024/03/08 00:22:38;;;;;;;12.43;6.72;;;5.10;99.90;;;;;;4981322;28;20065;-69
2024/03/08 00:25:11;;;;;;;15.23;5.88;;;5.00;99.90;;;;;;4995442;28;20045;-68
2024/03/08 00:27:38;;;;;;;14.52;6.88;;;5.00;99.90;;;;;;4978190;28;20379;-69
2024/03/08 00:30:05;;;;;;;19.17;6.57;;;5.00;99.90;;;;;;4994395;28;20073;-69
2024/03/08 00:32:31;;;;;;;19.02;7.32;;;4.90;99.90;;;;;;5007160;28;20035;-69
2024/03/08 00:34:57;;;;;;;14.13;7.25;;;4.90;99.90;;;;;;4989901;28;20030;-69
2024/03/08 00:37:24;;;;;;;17.58;6.00;;;4.90;99.90;;;;;;4992497;28;20061;-69
2024/03/08 00:39:51;;;;;;;14.15;6.50;;;4.90;99.90;;;;;;5005443;28;20029;-69
2024/03/08 00:42:19;;;;;;;16.10;6.53;;;4.90;99.90;;;;;;4993478;28;20026;-69
2024/03/08 00:44:45;;;;;;;19.08;7.13;;;4.90;99.90;;;;;;4993598;28;20022;-69
2024/03/08 00:47:11;;;;;;;11.80;5.35;;;4.90;99.90;;;;;;4993645;28;20048;-69
2024/03/08 00:49:38;;;;;;;14.55;6.60;;;4.90;99.90;;;;;;4987556;28;20112;-69
2024/03/08 00:52:07;;;;;;;16.23;7.25;;;4.90;99.90;;;;;;4996672;28;20041;-69
2024/03/08 00:54:33;;;;;;;16.50;5.82;;;4.90;99.90;;;;;;5009943;28;20491;-69
2024/03/08 00:57:02;;;;;;;11.20;7.05;;;4.90;99.90;;;;;;4977925;28;20045;-68
2024/03/08 00:59:30;;;;;;;10.50;5.72;;;4.90;99.90;;;;;;5001916;28;20819;-69
2024/03/08 01:01:56;;;;;;;11.98;6.30;;;4.90;99.90;;;;;;4993762;28;20042;-69
2024/03/08 01:04:23;;;;;;;10.75;6.00;;;4.80;99.90;;;;;;4985945;28;20034;-69
2024/03/08 01:06:48;;;;;;;15.50;5.97;;;4.80;99.90;;;;;;4995018;28;20026;-69
2024/03/08 01:09:17;;;;;;;13.13;6.18;;;4.90;99.90;;;;;;4980682;28;20030;-69
2024/03/08 01:11:43;;;;;;;15.05;6.07;;;4.80;99.90;;;;;;4984871;28;20146;-69
2024/03/08 01:14:09;;;;;;;13.02;5.28;;;4.90;99.90;;;;;;4978200;28;20097;-69
2024/03/08 01:16:35;;;;;;;16.70;6.43;;;4.80;99.90;;;;;;4979614;28;20026;-69
2024/03/08 01:19:01;;;;;;;13.35;5.60;;;4.90;99.90;;;;;;4978350;28;20568;-69
2024/03/08 01:21:27;;;;;;;17.85;6.53;;;4.90;99.90;;;;;;4994200;28;20481;-69
2024/03/08 01:23:53;;;;;;;14.73;6.10;;;5.00;99.90;;;;;;4991789;28;20034;-69
2024/03/08 01:26:18;;;;;;;9.40;4.55;;;5.00;99.90;;;;;;5007774;28;20030;-69
2024/03/08 01:28:44;;;;;;;21.83;6.85;;;4.90;99.90;;;;;;4992244;28;20088;-69
2024/03/08 01:31:10;;;;;;;10.60;6.20;;;4.80;99.90;;;;;;4991985;28;20034;-69
2024/03/08 01:33:35;;;;;;;13.38;6.40;;;4.80;99.90;;;;;;4994257;28;20042;-69
2024/03/08 01:36:02;;;;;;;17.27;6.95;;;4.70;99.90;;;;;;4991659;28;20077;-69
2024/03/08 01:38:28;;;;;;;21.90;6.47;;;4.80;99.90;;;;;;4992782;28;20438;-69
2024/03/08 01:40:53;;;;;;;14.98;6.18;;;4.70;99.90;;;;;;4991467;28;20018;-69
2024/03/08 01:43:28;;;;;;;13.05;5.78;;;4.70;99.90;;;;;;4994051;28;20041;-69
2024/03/08 01:45:58;;;;;;;11.52;5.18;;;4.60;99.90;;;;;;4989853;28;20026;-69
2024/03/08 01:48:24;;;;;;;12.70;5.83;;;4.60;99.90;;;;;;4993063;28;20053;-69
2024/03/08 01:50:52;;;;;;;18.27;7.80;;;4.60;99.90;;;;;;4989953;28;20038;-69
2024/03/08 01:53:19;;;;;;;11.07;5.63;;;4.60;99.90;;;;;;5008612;28;20092;-69
2024/03/08 01:55:47;;;;;;;11.98;6.53;;;4.50;99.90;;;;;;4989385;28;20082;-69
2024/03/08 01:58:16;;;;;;;8.52;5.28;;;4.60;99.90;;;;;;4992726;28;20026;-69
2024/03/08 02:00:46;;;;;;;15.90;6.30;;;4.50;99.90;;;;;;4991163;28;20022;-69
2024/03/08 02:03:12;;;;;;;10.05;5.78;;;4.40;99.90;;;;;;5008033;28;20390;-69
2024/03/08 02:05:40;;;;;;;12.05;6.18;;;4.40;99.90;;;;;;4986553;28;20054;-70
2024/03/08 02:08:07;;;;;;;15.80;5.53;;;4.30;99.90;;;;;;4992069;28;20035;-69
2024/03/08 02:10:34;;;;;;;12.55;6.43;;;4.30;99.90;;;;;;4992872;28;20042;-69
2024/03/08 02:13:02;;;;;;;16.92;6.82;;;4.30;99.90;;;;;;5008557;28;20026;-69
2024/03/08 02:16:00;;;;;;;16.30;6.18;;;4.20;99.90;;;;;;4990022;28;20509;-69
2024/03/08 02:18:29;;;;;;;16.80;7.97;;;4.20;99.90;;;;;;5015448;28;20411;-69
2024/03/08 02:21:03;;;;;;;9.57;5.22;;;4.20;99.90;;;;;;4992419;28;20113;-69
2024/03/08 02:23:29;;;;;;;10.43;5.65;;;4.20;99.90;;;;;;4992759;28;20026;-69
2024/03/08 02:25:56;;;;;;;12.23;6.50;;;4.20;99.90;;;;;;4991589;28;20073;-69
2024/03/08 02:28:25;;;;;;;12.63;6.15;;;4.20;99.90;;;;;;4992364;28;20041;-69
2024/03/08 02:30:51;;;;;;;16.85;6.30;;;4.20;99.90;;;;;;4972756;28;20038;-69
2024/03/08 02:33:18;;;;;;;14.07;6.47;;;4.10;99.90;;;;;;4991325;28;20037;-69
2024/03/08 02:35:48;;;;;;;12.80;5.93;;;4.20;99.90;;;;;;4990314;28;20037;-69
2024/03/08 02:38:16;;;;;;;14.25;6.53;;;4.20;99.90;;;;;;4975434;28;20064;-69
2024/03/08 02:40:43;;;;;;;9.25;5.50;;;4.30;99.90;;;;;;4989971;28;20526;-69
2024/03/08 02:43:10;;;;;;;17.30;6.47;;;4.20;99.90;;;;;;4989818;28;20034;-70
2024/03/08 02:45:36;;;;;;;14.85;5.45;;;4.30;99.90;;;;;;4992153;28;20546;-68
2024/03/08 02:48:03;;;;;;;14.52;5.55;;;4.30;99.90;;;;;;5007981;28;20109;-68
2024/03/08 02:50:28;;;;;;;13.95;5.72;;;4.30;99.90;;;;;;4989559;28;20088;-68
2024/03/08 02:52:54;;;;;;;11.48;5.85;;;4.40;99.90;;;;;;4992842;28;20026;-68
2024/03/08 02:55:20;;;;;;;18.08;5.60;;;4.40;99.90;;;;;;4988112;28;20469;-68
2024/03/08 02:57:49;;;;;;;10.38;5.85;;;4.40;99.90;;;;;;4991402;28;20101;-68
2024/03/08 03:00:15;;;;;;;11.15;4.32;;;4.40;99.90;;;;;;4989589;28;20034;-68
2024/03/08 03:02:42;;;;;;;9.50;4.85;;;4.40;99.90;;;;;;4991458;28;20729;-68
2024/03/08 03:05:09;;;;;;;9.38;4.18;;;4.40;99.90;;;;;;4987462;28;20399;-68
2024/03/08 03:07:35;;;;;;;12.10;4.97;;;4.30;99.90;;;;;;4994556;28;20499;-68
2024/03/08 03:10:02;;;;;;;12.77;5.32;;;4.30;99.90;;;;;;5007817;28;20038;-68
2024/03/08 03:12:29;;;;;;;12.25;6.80;;;4.30;99.90;;;;;;4992070;28;20023;-68
2024/03/08 03:14:56;;;;;;;14.35;4.82;;;4.20;99.90;;;;;;5004384;28;20101;-68
2024/03/08 03:17:26;;;;;;;13.93;5.20;;;4.20;99.90;;;;;;5007217;28;20022;-68
2024/03/08 03:19:52;;;;;;;9.93;4.93;;;4.10;99.90;;;;;;5004190;28;20065;-69
2024/03/08 03:22:19;;;;;;;16.58;7.82;;;4.00;99.90;;;;;;5007200;28;20030;-69
2024/03/08 03:24:51;;;;;;;15.30;6.45;;;4.10;99.90;;;;;;4992055;28;20075;-69
2024/03/08 03:27:17;;;;;;;11.75;5.07;;;4.10;99.90;;;;;;4975910;28;20049;-69
2024/03/08 03:29:49;;;;;;;11.48;4.97;;;4.10;99.90;;;;;;4989704;28;20026;-68
2024/03/08 03:32:15;;;;;;;11.95;5.05;;;4.00;99.90;;;;;;4990745;28;20618;-69
2024/03/08 03:34:43;;;;;;;8.30;4.57;;;4.00;99.90;;;;;;4988161;28;20045;-68
2024/03/08 03:37:12;;;;;;;17.48;5.70;;;3.90;99.90;;;;;;4990619;28;20483;-69
2024/03/08 03:39:48;;;;;;;15.70;6.70;;;3.90;99.90;;;;;;4973592;28;20026;-69
2024/03/08 03:42:16;;;;;;;10.73;6.45;;;3.90;99.90;;;;;;4975718;28;20400;-69
2024/03/08 03:44:47;;;;;;;16.30;5.85;;;3.90;99.90;;;;;;4987651;28;20115;-69
2024/03/08 03:47:14;;;;;;;9.10;5.72;;;4.00;99.90;;;;;;4991912;28;20030;-69
2024/03/08 03:49:43;;;;;;;24.30;6.20;;;4.00;99.90;;;;;;5003175;28;20030;-68
2024/03/08 03:52:10;;;;;;;12.27;6.20;;;3.90;99.90;;;;;;4991456;28;20112;-69
2024/03/08 03:54:36;;;;;;;13.63;6.13;;;3.90;99.90;;;;;;4987286;28;20038;-69
2024/03/08 03:57:02;;;;;;;8.82;5.13;;;3.90;99.90;;;;;;4990456;28;20506;-68
2024/03/08 03:59:29;;;;;;;9.43;5.95;;;3.90;99.90;;;;;;4987930;28;20030;-69
2024/03/08 04:01:55;;;;;;;10.00;4.60;;;3.90;99.90;;;;;;4991848;28;20026;-70
2024/03/08 04:04:24;;;;;;;14.60;5.57;;;3.80;99.90;;;;;;4987220;28;20038;-70
2024/03/08 04:06:51;;;;;;;10.60;4.68;;;3.80;99.90;;;;;;4992556;28;20066;-69
2024/03/08 04:09:19;;;;;;;11.63;4.80;;;3.80;99.90;;;;;;4988724;28;20026;-69
2024/03/08 04:11:45;;;;;;;11.27;5.78;;;3.80;99.90;;;;;;4990339;28;20426;-69
2024/03/08 04:14:11;;;;;;;7.13;3.90;;;3.80;99.90;;;;;;4988749;28;20379;-69
2024/03/08 04:16:37;;;;;;;13.02;5.78;;;3.80;99.90;;;;;;4994352;28;20025;-69
2024/03/08 04:19:04;;;;;;;13.95;7.35;;;3.70;99.90;;;;;;5006583;28;20030;-69
2024/03/08 04:21:33;;;;;;;9.98;5.68;;;3.70;99.90;;;;;;4991419;28;20023;-68
2024/03/08 04:23:58;;;;;;;9.63;4.78;;;3.70;99.90;;;;;;4991227;28;20061;-68
2024/03/08 04:26:25;;;;;;;10.85;5.75;;;3.70;99.90;;;;;;4991040;28;20026;-69
2024/03/08 04:28:51;;;;;;;11.10;5.68;;;3.60;99.90;;;;;;4989695;28;20072;-69
2024/03/08 04:31:17;;;;;;;15.00;7.03;;;3.60;99.90;;;;;;4989580;28;20069;-68
2024/03/08 04:33:44;;;;;;;11.63;5.30;;;3.60;99.90;;;;;;4987310;28;20030;-69
2024/03/08 04:36:13;;;;;;;7.82;4.40;;;3.50;99.90;;;;;;4990373;28;20716;-69
2024/03/08 04:38:42;;;;;;;13.38;7.38;;;3.60;99.90;;;;;;4989080;28;20030;-69
2024/03/08 04:41:09;;;;;;;20.30;8.00;;;3.60;99.90;;;;;;4991484;28;20034;-69
2024/03/08 04:43:36;;;;;;;13.95;6.55;;;3.50;99.90;;;;;;4987116;28;20474;-69
2024/03/08 04:46:03;;;;;;;11.38;5.35;;;3.50;99.90;;;;;;4991554;28;20034;-69
2024/03/08 04:48:29;;;;;;;7.72;4.63;;;3.50;99.90;;;;;;4988207;28;20475;-68
2024/03/08 04:50:55;;;;;;;13.27;5.70;;;3.50;99.90;;;;;;4992923;28;20049;-68
2024/03/08 04:53:21;;;;;;;17.75;5.30;;;3.40;99.90;;;;;;5006750;28;20027;-69
2024/03/08 04:55:47;;;;;;;15.35;6.05;;;3.40;99.90;;;;;;5009727;28;20031;-69
2024/03/08 04:58:13;;;;;;;14.25;6.28;;;3.40;99.90;;;;;;4994511;28;20080;-69
2024/03/08 05:00:38;;;;;;;11.85;5.60;;;3.50;99.90;;;;;;4990568;28;20483;-69
2024/03/08 05:03:04;;;;;;;14.48;6.70;;;3.60;99.90;;;;;;4994894;28;20038;-69
2024/03/08 05:05:30;;;;;;;12.07;5.72;;;3.70;99.90;;;;;;4973133;28;20038;-69
2024/03/08 05:07:56;;;;;;;15.93;6.20;;;3.70;99.90;;;;;;5009461;28;20030;-69
2024/03/08 05:10:22;;;;;;;19.00;6.38;;;3.70;99.90;;;;;;4989813;28;20053;-68
2024/03/08 05:12:48;;;;;;;16.63;6.00;;;3.70;99.90;;;;;;4993479;28;20038;-69
2024/03/08 05:15:14;;;;;;;11.82;4.95;;;3.70;99.90;;;;;;4989367;28;20031;-69
2024/03/08 05:17:43;;;;;;;14.60;4.38;;;3.70;99.90;;;;;;4993414;28;20037;-69
2024/03/08 05:20:12;;;;;;;11.65;5.47;;;3.70;99.90;;;;;;4993736;28;20427;-68
2024/03/08 05:22:38;;;;;;;18.02;5.90;;;3.70;99.90;;;;;;4994329;28;20033;-68
2024/03/08 05:25:04;;;;;;;11.23;5.10;;;3.70;99.90;;;;;;4991001;28;20117;-70
2024/03/08 05:27:30;;;;;;;9.63;6.53;;;3.70;99.90;;;;;;4993561;28;20848;-69
2024/03/08 05:29:55;;;;;;;14.75;6.75;;;3.70;99.90;;;;;;4992159;28;20031;-69
2024/03/08 05:32:21;;;;;;;19.20;7.65;;;3.80;99.90;;;;;;5007238;28;20034;-71
2024/03/08 05:34:47;;;;;;;13.13;6.05;;;3.80;99.90;;;;;;4991256;28;20018;-69
2024/03/08 05:37:12;;;;;;;15.05;6.15;;;3.70;99.90;;;;;;5006220;28;20092;-69
2024/03/08 05:39:38;;;;;;;11.48;5.20;;;3.60;99.90;;;;;;4993529;28;20494;-69
2024/03/08 05:42:04;;;;;;;11.60;5.70;;;3.70;99.90;;;;;;5005667;28;20509;-70
2024/03/08 05:44:30;;;;;;;12.57;5.03;;;3.70;99.90;;;;;;4992134;28;20069;-71
2024/03/08 05:46:56;;;;;;;15.40;6.22;;;3.70;99.90;;;;;;4990307;28;20054;-71
2024/03/08 05:49:22;;;;;;;11.27;6.38;;;3.70;99.90;;;;;;4967697;28;20042;-70
2024/03/08 05:51:48;;;;;;;11.77;6.03;;;3.60;99.90;;;;;;5003110;28;20101;-70
2024/03/08 05:54:14;;;;;;;8.52;4.18;;;3.50;99.90;;;;;;4990561;28;20077;-70
2024/03/08 05:56:43;;;;;;;9.25;5.70;;;3.50;99.90;;;;;;4992115;28;20023;-68
2024/03/08 05:59:11;;;;;;;13.40;6.25;;;3.50;99.90;;;;;;4991172;28;20085;-68
2024/03/08 06:01:36;;;;;;;13.13;5.88;;;3.60;99.90;;;;;;4992617;28;20022;-68
2024/03/08 06:04:03;;;;;;;16.38;6.63;;;3.50;99.90;;;;;;4992633;28;20088;-68
2024/03/08 06:06:30;;;;;;;15.15;6.75;;;3.50;99.90;;;;;;4993414;28;20100;-68
2024/03/08 06:08:59;;;;;;;12.70;6.38;;;3.50;99.90;;;;;;4993628;28;20022;-67
2024/03/08 06:11:28;;;;;;;12.18;4.72;;;3.60;99.90;;;;;;4987653;28;22074;-67
2024/03/08 06:13:59;;;;;;;11.73;5.28;;;3.70;99.90;;;;;;4974132;28;20038;-68
2024/03/08 06:16:28;;;;;;;;;;;3.70;99.90;;;;;;4980749;28;20034;-68
2024/03/08 06:18:58;;;;;;;10.52;5.40;;;3.70;99.90;;;;;;4995989;28;19921;-67
2024/03/08 06:21:27;;;;;;;14.63;6.75;;;3.80;99.90;;;;;;4981588;28;20035;-67
2024/03/08 06:23:57;;;;;;;18.80;6.75;;;3.80;99.90;;;;;;4982535;28;21488;-67
2024/03/08 06:26:24;;;;;;;15.80;6.80;;;3.70;99.90;;;;;;4995711;28;20030;-67
2024/03/08 06:28:50;;;;;;;18.25;7.05;;;3.70;99.90;;;;;;4978601;28;20034;-67
2024/03/08 06:31:16;;;;;;;11.25;6.78;;;3.70;99.90;;;;;;4982523;28;20399;-68
2024/03/08 06:33:42;;;;;;;16.05;7.68;;;3.80;99.90;;;;;;4986870;28;20061;-67
2024/03/08 06:36:11;;;;;;;14.95;8.35;;;3.80;99.90;;;;;;4988526;28;20101;-67
2024/03/08 06:38:42;;;;;;;12.43;4.53;;;3.80;99.90;;;;;;4985425;28;20032;-67
2024/03/08 06:41:17;;;;;;;18.33;6.40;;;4.00;99.90;;;;;;4989569;28;20054;-72
2024/03/08 06:43:51;;;;;;;13.40;5.70;;;3.90;99.90;;;;;;4990184;28;20033;-76
2024/03/08 06:46:20;;;;;;;17.95;8.40;;;4.00;99.90;;;;;;5002141;28;20046;-69
2024/03/08 06:48:46;;;;;;;16.38;5.82;;;4.00;99.90;;;;;;4989807;28;20034;-72
2024/03/08 06:51:11;;;;;;;10.77;5.25;;;4.10;99.90;;;;;;4991203;28;20030;-68
2024/03/08 06:53:38;;;;;;;14.85;6.15;;;4.10;99.90;;;;;;4990197;28;20034;-67
2024/03/08 06:56:04;;;;;;;19.45;6.40;;;4.20;99.90;;;;;;4988546;28;20039;-68
2024/03/08 06:58:30;;;;;;;12.95;5.57;;;4.20;99.90;;;;;;4983587;28;20029;-68
2024/03/08 07:00:58;;;;;;;14.27;5.95;;;4.30;99.90;;;;;;4992350;28;20053;-68
2024/03/08 07:03:24;;;;;;;12.18;6.68;;;4.30;99.90;;;;;;5006457;28;20416;-67
2024/03/08 07:05:50;;;;;;;13.60;5.38;;;4.40;99.90;;;;;;4992077;28;20084;-68
2024/03/08 07:08:16;;;;;;;15.80;6.90;;;4.30;99.90;;;;;;4992207;28;20030;-68
2024/03/08 07:10:42;;;;;;;19.83;6.53;;;4.40;99.90;;;;;;5001167;28;20188;-68
2024/03/08 07:13:09;;;;;;;10.98;5.30;;;4.40;99.90;;;;;;4981242;28;20546;-68
2024/03/08 07:15:35;;;;;;;12.48;6.90;;;4.50;99.90;;;;;;4988615;28;20077;-67
2024/03/08 07:18:01;;;;;;;18.27;7.05;;;4.50;99.90;;;;;;4987945;28;20022;-69
2024/03/08 07:20:28;;;;;;;14.95;6.18;;;4.60;99.90;;;;;;4992445;28;20035;-67
2024/03/08 07:22:54;;;;;;;16.85;5.95;;;4.60;99.90;;;;;;4975251;28;20495;-67
2024/03/08 07:25:24;;;;;;;14.52;5.88;;;4.70;99.90;;;;;;4983857;28;20039;-67
2024/03/08 07:27:52;;;;;;;14.43;5.18;;;4.70;99.90;;;;;;4990107;28;20033;-68
2024/03/08 07:33:04;;;;;;;13.95;6.10;;;5.20;99.90;;;;;;4980030;28;20110;-67
2024/03/08 07:35:31;;;;;;;14.95;6.97;;;5.20;99.90;;;;;;4981619;28;20034;-67
2024/03/08 07:37:57;;;;;;;11.98;5.25;;;5.00;99.90;;;;;;4991270;28;20026;-67
2024/03/08 07:40:23;;;;;;;25.70;7.50;;;5.10;99.90;;;;;;4983722;28;20117;-67
2024/03/08 07:42:52;;;;;;;14.38;6.00;;;5.10;99.90;;;;;;5005619;28;20134;-67
2024/03/08 07:45:18;;;;;;;13.07;6.40;;;5.10;99.90;;;;;;4986258;28;20427;-67
2024/03/08 07:47:44;;;;;;;11.55;6.65;;;5.20;99.90;;;;;;4990828;28;20026;-67
2024/03/08 07:50:10;;;;;;;21.27;6.53;;;5.30;99.90;;;;;;4989594;28;20034;-68
2024/03/08 07:52:36;;;;;;;17.23;7.47;;;5.30;99.90;;;;;;5007471;28;20030;-68
2024/03/08 07:55:03;;;;;;;14.45;6.35;;;5.30;99.90;;;;;;4985563;28;20029;-67
2024/03/08 07:57:29;;;;;;;12.98;6.30;;;5.40;99.90;;;;;;5007176;28;20543;-68
2024/03/08 07:59:56;;;;;;;12.43;5.93;;;5.40;99.90;;;;;;5000560;28;20074;-67
2024/03/08 08:02:21;;;;;;;16.02;6.63;;;5.50;99.90;;;;;;4990382;28;20037;-68
2024/03/08 08:04:47;;;;;;;15.38;6.22;;;5.50;99.90;;;;;;4991064;28;20205;-68
2024/03/08 08:07:14;;;;;;;21.75;6.13;;;5.50;99.90;;;;;;4992420;28;20030;-67
2024/03/08 08:09:42;;;;;;;20.25;6.88;;;5.50;99.90;;;;;;4985074;28;20018;-67
2024/03/08 08:12:11;;;;;;;19.45;6.25;;;5.50;99.90;;;;;;5006822;28;20026;-67
2024/03/08 08:14:41;;;;;;;19.38;6.22;;;5.60;99.90;;;;;;4989760;28;20105;-67
2024/03/08 08:17:08;;;;;;;12.13;5.80;;;5.70;99.90;;;;;;4991127;28;20113;-67
2024/03/08 08:19:35;;;;;;;13.52;6.97;;;5.70;99.90;;;;;;4997380;28;20058;-67
2024/03/08 08:22:02;;;;;;;13.32;6.60;;;5.70;99.90;;;;;;4991790;28;20030;-67
2024/03/08 08:24:28;;;;;;;16.35;6.88;;;5.70;99.90;;;;;;4970384;28;20369;-67
2024/03/08 08:26:54;;;;;;;15.48;6.78;;;5.80;99.90;;;;;;4994315;28;20037;-67
2024/03/08 08:29:20;;;;;;;7.95;5.47;;;5.70;99.90;;;;;;5005182;28;20086;-67
2024/03/08 08:31:47;;;;;;;14.07;5.75;;;5.70;99.90;;;;;;5000808;28;20029;-69
2024/03/08 08:34:13;;;;;;;18.13;6.57;;;5.80;99.90;;;;;;4997090;28;20149;-68
2024/03/08 08:36:39;;;;;;;13.05;6.47;;;5.90;99.90;;;;;;5017018;28;20029;-68
2024/03/08 08:39:12;;;;;;;10.27;4.45;;;5.90;99.90;;;;;;4993220;28;20034;-68
2024/03/08 08:41:38;;;;;;;16.45;5.85;;;6.00;99.90;;;;;;5002849;28;20054;-68
2024/03/08 08:44:03;;;;;;;13.05;7.43;;;6.00;99.90;;;;;;4990349;28;20077;-68
2024/03/08 08:46:29;;;;;;;12.98;5.57;;;6.10;99.90;;;;;;4994754;28;20121;-68
2024/03/08 08:48:56;;;;;;;13.25;6.65;;;6.10;99.90;;;;;;5007587;28;20058;-68
2024/03/08 08:51:22;;;;;;;13.88;5.78;;;6.20;99.90;;;;;;4993560;28;20030;-68
2024/03/08 08:53:48;;;;;;;15.45;6.22;;;6.30;99.90;;;;;;4993218;28;20415;-68
2024/03/08 08:56:15;;;;;;;14.00;6.60;;;6.40;99.90;;;;;;4991900;28;20057;-68
2024/03/08 08:58:42;;;;;;;16.65;5.80;;;6.40;99.90;;;;;;4994537;28;20019;-68
2024/03/08 09:01:14;;;;;;;17.98;6.25;;;6.30;99.90;;;;;;5006620;28;20026;-68
2024/03/08 09:03:42;;;;;;;13.77;6.95;;;6.50;99.90;;;;;;5002527;28;20516;-68
2024/03/08 09:06:09;;;;;;;13.18;5.68;;;6.50;99.90;;;;;;4994616;28;20034;-68
2024/03/08 09:08:36;;;;;;;12.40;5.32;;;6.60;99.90;;;;;;4994840;28;20022;-68
2024/03/08 09:11:02;;;;;;;14.98;5.85;;;6.70;99.90;;;;;;4993620;28;20026;-68
2024/03/08 09:13:28;;;;;;;15.60;6.60;;;6.80;99.90;;;;;;4994477;28;20169;-68
2024/03/08 09:15:54;;;;;;;14.07;5.97;;;6.90;99.90;;;;;;4994554;28;20034;-68
2024/03/08 09:18:20;;;;;;;16.25;8.02;;;7.00;99.90;;;;;;5009403;28;20081;-68
2024/03/08 09:20:46;;;;;;;17.10;6.72;;;7.10;99.90;;;;;;4993124;28;20557;-68
2024/03/08 09:23:12;;;;;;;17.48;5.15;;;7.20;99.90;;;;;;4994287;28;20070;-68
2024/03/08 09:25:38;;;;;;;17.33;7.70;;;7.10;99.90;;;;;;4992961;28;20030;-67
2024/03/08 09:28:05;;;;;;;14.90;6.45;;;7.00;99.90;;;;;;5009383;28;20038;-67
2024/03/08 09:30:31;;;;;;;13.52;5.40;;;6.90;99.90;;;;;;4994167;28;20117;-68
2024/03/08 09:32:57;;;;;;;16.40;6.00;;;7.00;99.90;;;;;;4993954;28;20105;-68
2024/03/08 09:35:22;;;;;;;18.25;7.28;;;7.20;99.90;;;;;;4993956;28;20348;-68
2024/03/08 09:37:51;;;;;;;11.70;5.22;;;7.30;99.90;;;;;;4993064;28;20030;-67
2024/03/08 09:40:19;;;;;;;17.27;6.25;;;7.50;99.90;;;;;;4994150;28;20026;-67
2024/03/08 09:42:48;;;;;;;14.45;6.28;;;7.40;99.90;;;;;;4994258;28;20113;-67
2024/03/08 09:45:16;;;;;;;25.70;6.50;;;7.30;99.90;;;;;;4992605;28;20041;-67
2024/03/08 09:47:43;;;;;;;11.57;5.88;;;7.50;99.90;;;;;;4993882;28;20050;-68
2024/03/08 09:50:12;;;;;;;11.60;5.65;;;7.70;99.90;;;;;;4992842;28;20073;-68
2024/03/08 09:52:43;;;;;;;11.43;5.93;;;7.90;99.90;;;;;;4993727;28;20062;-67
2024/03/08 09:55:13;;;;;;;10.35;5.65;;;8.10;99.90;;;;;;4992628;28;20045;-67
2024/03/08 10:00:30;;;;;;;10.63;5.20;;;8.10;99.90;;;;;;5002223;28;20045;-67
2024/03/08 10:03:02;;;;;;;18.73;6.53;;;8.30;99.90;;;;;;4994108;28;20022;-67
2024/03/08 10:05:28;;;;;;;16.77;7.00;;;8.60;99.90;;;;;;4992145;28;20061;-68
2024/03/08 10:07:54;;;;;;;14.80;6.53;;;8.50;99.90;;;;;;4993828;28;20212;-68
2024/03/08 10:10:20;;;;;;;13.75;6.00;;;8.40;99.90;;;;;;4993611;28;20121;-68
2024/03/08 10:12:46;;;;;;;13.35;6.75;;;8.40;99.90;;;;;;4992323;28;20506;-68
2024/03/08 10:15:12;;;;;;;16.48;5.78;;;8.40;99.90;;;;;;4991797;28;20027;-67
2024/03/08 10:17:39;;;;;;;10.10;5.63;;;8.50;99.90;;;;;;4993290;28;20014;-67
2024/03/08 10:20:15;;;;;;;10.65;5.78;;;8.60;99.90;;;;;;4993743;28;20403;-68
2024/03/08 10:22:44;;;;;;;14.93;6.15;;;8.90;99.90;;;;;;4986046;28;20093;-67
2024/03/08 10:25:14;;;;;;;12.20;5.38;;;9.00;99.90;;;;;;5007280;28;20471;-68
2024/03/08 10:27:43;;;;;;;14.60;7.70;;;9.10;99.90;;;;;;4993144;28;20109;-68
2024/03/08 10:30:14;;;;;;;13.95;5.85;;;9.10;99.90;;;;;;4993451;28;20117;-67
2024/03/08 10:32:41;;;;;;;12.07;6.00;;;9.30;99.90;;;;;;5003255;28;20122;-68
2024/03/08 10:35:08;;;;;;;18.02;6.05;;;8.80;99.90;;;;;;4991321;28;20022;-67
2024/03/08 10:37:45;;;;;;;16.20;6.53;;;8.60;99.90;;;;;;4992877;28;20430;-67
2024/03/08 10:40:20;;;;;;;14.40;6.22;;;8.80;99.90;;;;;;4993017;28;20436;-68
2024/03/08 10:42:58;;;;;;;11.80;6.63;;;8.70;99.90;;;;;;4992858;28;20062;-68
2024/03/08 10:45:37;;;;;;;12.73;5.78;;;8.30;99.90;;;;;;4995582;28;20030;-68
2024/03/08 10:48:31;;;;;;;14.85;5.70;;;8.40;99.90;;;;;;4975044;28;20034;-68
2024/03/08 10:51:02;;;;;;;12.13;5.80;;;8.30;99.90;;;;;;5002233;28;20104;-68
2024/03/08 10:53:29;;;;;;;12.07;5.47;;;8.20;99.90;;;;;;4991070;28;20085;-67
2024/03/08 10:55:57;;;;;;;14.13;5.47;;;8.60;99.90;;;;;;4992193;28;20041;-67
2024/03/08 10:58:27;;;;;;;31.73;6.88;;;9.40;99.90;;;;;;4985313;28;20049;-67
2024/03/08 11:00:56;;;;;;;14.15;5.45;;;9.90;99.90;;;;;;4988032;28;20030;-67
2024/03/08 11:03:41;;;;;;;13.18;5.43;;;9.90;99.90;;;;;;4988767;28;20108;-67
2024/03/08 11:06:09;;;;;;;13.75;5.90;;;9.90;99.90;;;;;;4988050;28;20034;-68
2024/03/08 11:08:39;;;;;;;11.48;5.93;;;9.90;99.90;;;;;;4991522;28;20053;-67
2024/03/08 11:11:04;;;;;;;15.77;5.25;;;9.60;99.90;;;;;;4990430;28;20112;-68
2024/03/08 11:13:37;;;;;;;13.98;5.25;;;10.50;99.90;;;;;;4981993;28;20466;-68
2024/03/08 11:16:11;;;;;;;15.68;6.40;;;10.60;99.90;;;;;;5002775;28;20039;-68
2024/03/08 11:18:37;;;;;;;14.10;5.82;;;10.30;99.60;;;;;;4985384;28;20026;-68
2024/03/08 11:21:13;;;;;;;11.75;5.57;;;10.10;99.90;;;;;;4990397;28;20073;-68
2024/03/08 11:23:42;;;;;;;11.57;5.68;;;10.30;99.90;;;;;;4988700;28;20431;-68
2024/03/08 11:26:23;;;;;;;14.90;6.43;;;10.80;99.10;;;;;;4991680;28;20030;-68
2024/03/08 11:28:51;;;;;;;14.30;6.38;;;10.40;99.50;;;;;;5000250;28;20041;-68
2024/03/08 11:31:26;;;;;;;13.13;6.20;;;11.10;99.70;;;;;;4988083;28;20041;-68
2024/03/08 11:33:53;;;;;;;20.85;6.13;;;11.10;98.60;;;;;;4991091;28;20027;-68
2024/03/08 11:36:24;;;;;;;13.80;4.72;;;11.10;98.70;;;;;;5001288;28;20026;-68
2024/03/08 11:38:52;;;;;;;;;;;10.80;99.10;;;;;;4988408;28;20146;-68
2024/03/08 11:41:24;;;;;;;12.57;6.07;;;10.60;98.90;;;;;;5006543;28;20007;-68
2024/03/08 11:44:05;;;;;;;14.60;5.50;;;11.90;98.00;;;;;;4983432;28;20037;-68
2024/03/08 11:46:31;;;;;;;12.45;5.60;;;12.10;96.30;;;;;;5005074;28;20030;-68
2024/03/08 11:48:57;;;;;;;13.30;6.10;;;12.30;96.90;;;;;;4986994;28;20031;-68
2024/03/08 11:51:23;;;;;;;10.65;5.35;;;12.40;96.70;;;;;;4989807;28;20567;-69
2024/03/08 11:53:50;;;;;;;11.65;4.97;;;12.40;97.50;;;;;;4972981;28;20085;-69
2024/03/08 11:56:20;;;;;;;12.13;5.90;;;12.70;96.10;;;;;;4989678;28;20029;-68
2024/03/08 11:58:57;;;;;;;15.13;5.38;;;11.90;96.30;;;;;;4990158;28;20041;-67
2024/03/08 12:01:23;;;;;;;11.88;5.25;;;11.50;97.10;;;;;;4989844;28;20046;-67
2024/03/08 12:03:58;;;;;;;15.52;7.15;;;11.90;96.60;;;;;;4983742;28;20042;-67
2024/03/08 12:06:26;;;;;;;17.13;6.40;;;11.60;97.00;;;;;;4981948;28;20077;-67
2024/03/08 12:08:53;;;;;;;18.17;6.35;;;11.80;97.10;;;;;;4990087;28;20426;-66
2024/03/08 12:11:23;;;;;;;10.30;5.82;;;12.40;95.80;;;;;;4990225;28;20116;-68
2024/03/08 12:13:52;;;;;;;14.00;6.18;;;12.90;94.90;;;;;;4984060;28;20097;-67
2024/03/08 12:16:18;;;;;;;12.23;5.03;;;12.30;95.10;;;;;;4995982;28;20022;-67
2024/03/08 12:18:45;;;;;;;12.35;5.20;;;12.20;96.40;;;;;;4991651;28;20049;-67
2024/03/08 12:21:19;;;;;;;15.32;5.75;;;12.50;95.60;;;;;;4987650;28;20030;-67
2024/03/08 12:23:45;;;;;;;10.57;5.35;;;13.00;95.60;;;;;;4991298;28;20026;-68
2024/03/08 12:26:16;;;;;;;12.88;5.82;;;12.10;95.40;;;;;;5005543;28;20103;-68
2024/03/08 12:28:47;;;;;;;13.40;5.72;;;12.50;95.90;;;;;;4985712;28;20394;-67
2024/03/08 12:31:20;;;;;;;8.82;5.10;;;12.60;95.70;;;;;;4999048;28;20053;-67
2024/03/08 12:33:53;;;;;;;10.90;5.45;;;12.70;95.50;;;;;;5005575;28;20129;-68
2024/03/08 12:36:20;;;;;;;8.45;4.60;;;13.60;93.70;;;;;;4984838;28;20034;-68
2024/03/08 12:38:49;;;;;;;12.52;5.93;;;14.00;93.40;;;;;;5006558;28;20026;-68
2024/03/08 12:41:17;;;;;;;17.55;7.28;;;15.10;92.20;;;;;;4985325;28;20031;-68
2024/03/08 12:43:48;;;;;;;12.40;6.03;;;14.40;92.90;;;;;;4990606;28;20033;-68
2024/03/08 12:46:29;;;;;;;14.88;5.00;;;13.50;94.50;;;;;;4988037;28;20093;-67
2024/03/08 12:48:56;;;;;;;15.60;6.70;;;13.30;94.50;;;;;;4990420;28;20030;-68
2024/03/08 12:51:22;;;;;;;11.90;5.35;;;14.40;93.20;;;;;;4988836;28;20376;-68
2024/03/08 12:53:48;;;;;;;15.30;6.30;;;14.60;92.50;;;;;;5006148;28;20027;-68
2024/03/08 12:56:34;;;;;;;12.73;5.43;;;14.60;93.40;;;;;;4986997;28;20450;-68